Time;durP1;ratioP1;P1;durP2;ratioP2;P2;SDS_P1;SDS_P2;PMS_P1;PMS_P2;Temp;Humidity;BMP_temperature;BMP_pressure;BME280_temperature;BME280_humidity;BME280_pressure;Samples;Min_cycle;Max_cycle;Signal;HPM_P1;HPM_P2
2023/12/25 00:01:15;;;;;;;2.13;1.42;;;15.80;99.90;;;;;;4613155;19;20003;-79
2023/12/25 00:02:51;;;;;;;2.92;1.80;;;15.80;99.90;;;;;;4613630;19;20080;-79
2023/12/25 00:04:25;;;;;;;2.35;1.35;;;15.90;99.90;;;;;;4612395;19;20002;-79
2023/12/25 00:05:58;;;;;;;2.47;1.27;;;15.90;99.90;;;;;;4612266;19;20006;-79
2023/12/25 00:07:33;;;;;;;1.48;0.80;;;16.00;99.90;;;;;;4611970;19;20113;-79
2023/12/25 00:09:08;;;;;;;2.50;1.02;;;15.90;99.90;;;;;;4613389;19;20010;-79
2023/12/25 00:10:43;;;;;;;2.47;1.23;;;15.90;99.90;;;;;;4611935;19;20027;-79
2023/12/25 00:12:18;;;;;;;2.08;0.93;;;15.90;99.90;;;;;;4612006;19;20005;-79
2023/12/25 00:13:54;;;;;;;1.80;0.90;;;15.90;99.90;;;;;;4612184;19;20014;-79
2023/12/25 00:15:30;;;;;;;1.88;0.98;;;15.90;99.90;;;;;;4611358;19;20014;-79
2023/12/25 00:17:06;;;;;;;3.20;1.33;;;15.90;99.90;;;;;;4612772;19;20010;-79
2023/12/25 00:18:40;;;;;;;1.88;1.17;;;15.90;99.90;;;;;;4613065;19;20081;-80
2023/12/25 00:20:14;;;;;;;2.70;1.63;;;15.90;99.90;;;;;;4595546;19;20009;-79
2023/12/25 00:21:51;;;;;;;3.17;1.42;;;15.90;99.90;;;;;;4595441;19;20002;-80
2023/12/25 00:23:25;;;;;;;3.85;1.92;;;15.90;99.90;;;;;;4595577;19;20013;-79
2023/12/25 00:24:59;;;;;;;7.50;4.85;;;15.90;99.90;;;;;;4595192;19;20014;-79
2023/12/25 00:26:35;;;;;;;3.85;2.05;;;15.90;99.90;;;;;;4596052;19;20425;-79
2023/12/25 00:28:09;;;;;;;3.15;1.83;;;15.90;99.90;;;;;;4594334;19;20003;-79
2023/12/25 00:29:45;;;;;;;6.00;3.25;;;15.90;99.90;;;;;;4595024;19;20013;-79
2023/12/25 00:31:21;;;;;;;6.93;4.15;;;15.80;99.90;;;;;;4595641;19;20011;-79
2023/12/25 00:32:55;;;;;;;2.33;1.17;;;15.80;99.90;;;;;;4595172;19;20011;-79
2023/12/25 00:34:29;;;;;;;7.25;4.43;;;15.70;99.90;;;;;;4594008;19;20461;-79
2023/12/25 00:36:05;;;;;;;7.28;4.15;;;15.80;99.90;;;;;;4593649;19;20011;-79
2023/12/25 00:37:41;;;;;;;4.53;2.60;;;15.70;99.90;;;;;;4595028;19;19998;-79
2023/12/25 00:39:15;;;;;;;8.15;4.45;;;15.70;99.90;;;;;;4594003;19;20002;-79
2023/12/25 00:40:50;;;;;;;12.30;6.25;;;15.80;99.90;;;;;;4594653;19;20029;-79
2023/12/25 00:42:24;;;;;;;7.63;4.13;;;15.70;99.90;;;;;;4594997;19;19999;-79
2023/12/25 00:43:59;;;;;;;4.70;2.20;;;15.70;99.90;;;;;;4595248;19;20010;-79
2023/12/25 00:45:34;;;;;;;12.55;6.00;;;15.70;99.90;;;;;;4594336;19;20023;-79
2023/12/25 00:47:08;;;;;;;14.27;7.30;;;15.70;99.90;;;;;;4594966;19;20002;-79
2023/12/25 00:48:42;;;;;;;20.27;10.55;;;15.60;99.90;;;;;;4593698;19;19999;-79
2023/12/25 00:50:17;;;;;;;18.00;9.13;;;15.60;99.90;;;;;;4594829;19;20010;-79
2023/12/25 00:51:51;;;;;;;8.80;3.83;;;15.60;99.90;;;;;;4594681;19;20382;-79
2023/12/25 00:53:25;;;;;;;16.05;8.13;;;15.60;99.90;;;;;;4595070;19;20002;-79
2023/12/25 00:55:00;;;;;;;10.68;5.93;;;15.50;99.90;;;;;;4594730;19;20398;-79
2023/12/25 00:56:34;;;;;;;8.05;4.28;;;15.50;99.90;;;;;;4594695;19;20006;-79
2023/12/25 00:58:08;;;;;;;13.23;7.57;;;15.50;99.90;;;;;;4595008;19;20005;-79
2023/12/25 00:59:44;;;;;;;6.93;3.20;;;15.50;99.90;;;;;;4594658;19;20065;-79
2023/12/25 01:14:49;;;;;;;8.73;3.67;;;15.40;99.90;;;;;;4562335;19;20021;-80
2023/12/25 01:16:26;;;;;;;9.68;4.65;;;15.40;99.90;;;;;;4594586;19;20440;-81
2023/12/25 01:18:00;;;;;;;9.45;4.55;;;15.40;99.90;;;;;;4592930;19;20358;-80
2023/12/25 01:19:33;;;;;;;8.45;4.72;;;15.40;99.90;;;;;;4592756;19;20010;-81
2023/12/25 01:21:09;;;;;;;7.78;4.32;;;15.30;99.90;;;;;;4592894;19;20010;-80
2023/12/25 01:22:43;;;;;;;8.60;4.15;;;15.30;99.90;;;;;;4593798;19;20003;-81
2023/12/25 01:24:16;;;;;;;8.60;4.75;;;15.30;99.90;;;;;;4593987;19;20003;-80
2023/12/25 01:25:52;;;;;;;5.82;3.10;;;15.30;99.90;;;;;;4594114;19;20086;-80
2023/12/25 01:27:26;;;;;;;9.90;5.00;;;15.30;99.90;;;;;;4592461;19;20010;-80
2023/12/25 01:29:02;;;;;;;8.23;4.88;;;15.30;99.90;;;;;;4593948;19;20304;-80
2023/12/25 01:30:38;;;;;;;7.05;3.67;;;15.40;99.90;;;;;;4593836;19;20017;-80
2023/12/25 01:32:12;;;;;;;6.32;4.20;;;15.40;99.90;;;;;;4591309;19;20443;-80
2023/12/25 01:33:46;;;;;;;8.38;4.45;;;15.40;99.90;;;;;;4592813;19;20069;-80
2023/12/25 01:35:21;;;;;;;6.53;2.90;;;15.30;99.90;;;;;;4592785;19;20367;-80
2023/12/25 01:36:55;;;;;;;10.68;6.05;;;15.30;99.90;;;;;;4593849;19;20023;-80
2023/12/25 01:38:29;;;;;;;11.13;6.60;;;15.30;99.90;;;;;;4594162;19;20002;-80
2023/12/25 01:40:05;;;;;;;8.32;4.70;;;15.30;99.90;;;;;;4593863;19;20007;-80
2023/12/25 01:41:39;;;;;;;8.00;4.50;;;15.30;99.90;;;;;;4592665;19;19999;-80
2023/12/25 01:43:14;;;;;;;5.88;3.50;;;15.30;99.90;;;;;;4593429;19;19998;-80
2023/12/25 01:44:49;;;;;;;7.88;4.28;;;15.30;99.90;;;;;;4593558;19;20010;-80
2023/12/25 01:46:24;;;;;;;8.73;5.38;;;15.20;99.90;;;;;;4593675;19;20425;-80
2023/12/25 01:47:58;;;;;;;7.38;3.92;;;15.30;99.90;;;;;;4593130;19;20002;-80
2023/12/25 01:49:33;;;;;;;7.53;3.72;;;15.30;99.90;;;;;;4593594;19;20006;-80
2023/12/25 01:51:07;;;;;;;4.30;1.85;;;15.30;99.90;;;;;;4593543;19;20021;-80
2023/12/25 01:52:41;;;;;;;4.15;1.50;;;15.30;99.90;;;;;;4593761;19;20007;-80
2023/12/25 01:54:16;;;;;;;3.65;1.83;;;15.30;99.90;;;;;;4593466;19;20011;-80
2023/12/25 01:55:50;;;;;;;3.30;1.60;;;15.30;99.90;;;;;;4592403;19;20009;-80
2023/12/25 01:57:24;;;;;;;2.92;1.55;;;15.30;99.90;;;;;;4593056;19;20003;-80
2023/12/25 01:59:02;;;;;;;3.55;1.42;;;15.30;99.90;;;;;;4592423;19;20058;-80
2023/12/25 02:00:36;;;;;;;3.53;1.40;;;15.30;99.90;;;;;;4592219;19;20003;-80
2023/12/25 02:02:10;;;;;;;4.40;1.48;;;15.20;99.90;;;;;;4592974;19;20062;-81
2023/12/25 02:03:47;;;;;;;4.28;1.50;;;15.30;99.90;;;;;;4591933;19;20017;-80
2023/12/25 02:05:21;;;;;;;2.10;1.35;;;15.20;99.90;;;;;;4592378;19;20007;-80
2023/12/25 02:06:56;;;;;;;2.58;1.13;;;15.20;99.90;;;;;;4591923;19;19998;-80
2023/12/25 02:08:32;;;;;;;2.38;1.00;;;15.20;99.90;;;;;;4592353;19;20009;-80
2023/12/25 02:10:08;;;;;;;3.08;1.30;;;15.20;99.90;;;;;;4591797;19;20002;-80
2023/12/25 02:11:41;;;;;;;3.35;1.30;;;15.20;99.90;;;;;;4592239;19;20010;-80
2023/12/25 02:13:17;;;;;;;2.50;1.25;;;15.20;99.90;;;;;;4592995;19;20008;-80
2023/12/25 02:14:50;;;;;;;3.45;1.50;;;15.20;99.90;;;;;;4592283;19;20317;-80
2023/12/25 02:16:25;;;;;;;4.88;1.55;;;15.20;99.90;;;;;;4593260;19;20029;-80
2023/12/25 02:18:00;;;;;;;3.72;1.52;;;15.20;99.90;;;;;;4593143;19;20002;-80
2023/12/25 02:19:39;;;;;;;5.50;1.70;;;15.20;99.90;;;;;;4591577;19;20438;-80
2023/12/25 02:21:13;;;;;;;2.95;1.00;;;15.20;99.90;;;;;;4593052;19;20006;-80
2023/12/25 02:22:48;;;;;;;3.00;1.13;;;15.20;99.90;;;;;;4592928;19;20007;-80
2023/12/25 02:24:25;;;;;;;3.85;1.23;;;15.10;99.90;;;;;;4592654;19;20038;-80
2023/12/25 02:25:59;;;;;;;2.97;1.10;;;15.20;99.90;;;;;;4591530;19;20010;-80
2023/12/25 02:27:34;;;;;;;5.50;1.20;;;15.20;99.90;;;;;;4592289;19;20024;-80
2023/12/25 02:29:08;;;;;;;5.28;1.70;;;15.20;99.90;;;;;;4592793;19;20035;-80
2023/12/25 02:30:42;;;;;;;3.92;1.20;;;15.20;99.90;;;;;;4591431;19;20003;-80
2023/12/25 02:32:17;;;;;;;6.25;1.45;;;15.20;99.90;;;;;;4592392;19;20003;-80
2023/12/25 02:33:51;;;;;;;3.25;1.15;;;15.20;99.90;;;;;;4592342;19;20317;-80
2023/12/25 02:35:26;;;;;;;3.10;1.00;;;15.10;99.90;;;;;;4592040;19;20006;-80
2023/12/25 02:37:01;;;;;;;3.70;1.70;;;15.10;99.90;;;;;;4592735;19;20029;-80
2023/12/25 02:38:35;;;;;;;4.22;1.30;;;15.10;99.90;;;;;;4592915;19;20296;-80
2023/12/25 02:40:09;;;;;;;2.38;1.08;;;15.10;99.90;;;;;;4592690;19;20002;-80
2023/12/25 02:41:44;;;;;;;5.00;1.23;;;15.10;99.90;;;;;;4592678;19;19998;-80
2023/12/25 02:43:18;;;;;;;4.85;1.38;;;15.00;99.90;;;;;;4590798;19;20310;-80
2023/12/25 02:44:52;;;;;;;4.05;1.17;;;15.00;99.90;;;;;;4591574;19;20003;-80
2023/12/25 02:46:27;;;;;;;3.33;1.40;;;15.00;99.90;;;;;;4592670;19;20002;-80
2023/12/25 02:48:01;;;;;;;5.18;3.10;;;15.00;99.90;;;;;;4591898;19;20317;-80
2023/12/25 02:49:38;;;;;;;8.45;2.97;;;15.00;99.90;;;;;;4592801;19;20028;-80
2023/12/25 02:51:13;;;;;;;11.10;4.18;;;15.00;99.90;;;;;;4592717;19;20022;-80
2023/12/25 02:52:47;;;;;;;7.10;3.03;;;15.00;99.90;;;;;;4591042;19;20002;-80
2023/12/25 02:54:23;;;;;;;6.68;2.55;;;15.00;99.90;;;;;;4592005;19;19999;-80
2023/12/25 02:55:58;;;;;;;10.02;3.30;;;14.90;99.90;;;;;;4592339;19;20013;-79
2023/12/25 02:57:32;;;;;;;5.15;2.10;;;14.90;99.90;;;;;;4592483;19;20007;-79
2023/12/25 02:59:06;;;;;;;5.93;2.00;;;14.90;99.90;;;;;;4591968;19;19999;-79
2023/12/25 03:00:41;;;;;;;7.40;1.90;;;14.90;99.90;;;;;;4592338;19;20034;-79
2023/12/25 03:02:15;;;;;;;4.03;1.58;;;14.90;99.90;;;;;;4592160;19;20005;-80
2023/12/25 03:03:51;;;;;;;6.10;2.88;;;14.90;99.90;;;;;;4592213;19;20006;-80
2023/12/25 03:05:32;;;;;;;5.05;2.00;;;14.90;99.90;;;;;;4590224;19;20010;-80
2023/12/25 03:07:07;;;;;;;4.85;1.70;;;14.90;99.90;;;;;;4591951;19;20006;-79
2023/12/25 03:08:41;;;;;;;4.97;1.63;;;14.90;99.90;;;;;;4591214;19;20078;-79
2023/12/25 03:10:17;;;;;;;6.82;2.25;;;14.90;99.90;;;;;;4590650;19;20014;-79
2023/12/25 03:11:50;;;;;;;7.40;2.30;;;14.80;99.90;;;;;;4591573;19;20015;-80
2023/12/25 03:13:26;;;;;;;5.95;2.03;;;14.80;99.90;;;;;;4592350;19;20010;-79
2023/12/25 03:15:02;;;;;;;6.43;2.35;;;14.80;99.90;;;;;;4591070;19;20010;-79
2023/12/25 03:16:36;;;;;;;3.20;1.58;;;14.80;99.90;;;;;;4590709;19;20021;-79
2023/12/25 03:18:11;;;;;;;3.95;1.48;;;14.80;99.90;;;;;;4591785;19;20003;-80
2023/12/25 03:19:46;;;;;;;5.18;1.40;;;14.90;99.90;;;;;;4592278;19;20015;-80
2023/12/25 03:21:21;;;;;;;6.75;1.65;;;14.90;99.90;;;;;;4591897;19;20038;-79
2023/12/25 03:22:54;;;;;;;5.22;1.92;;;14.90;99.90;;;;;;4591933;19;20025;-79
2023/12/25 03:24:30;;;;;;;5.20;1.60;;;14.80;99.90;;;;;;4591625;19;20059;-79
2023/12/25 03:26:05;;;;;;;5.70;2.33;;;14.90;99.90;;;;;;4591720;19;20013;-79
2023/12/25 03:27:41;;;;;;;4.75;1.83;;;14.80;99.90;;;;;;4590559;19;20006;-79
2023/12/25 03:29:16;;;;;;;4.68;1.70;;;14.80;99.90;;;;;;4591401;19;20010;-79
2023/12/25 03:30:50;;;;;;;4.68;1.63;;;14.80;99.90;;;;;;4591878;19;20006;-79
2023/12/25 03:32:24;;;;;;;4.30;1.83;;;14.80;99.90;;;;;;4591935;19;20414;-79
2023/12/25 03:34:00;;;;;;;5.20;1.60;;;14.80;99.90;;;;;;4591765;19;20011;-79
2023/12/25 03:35:34;;;;;;;4.90;1.80;;;14.80;99.90;;;;;;4590771;19;20025;-79
2023/12/25 03:37:08;;;;;;;5.18;1.10;;;14.80;99.90;;;;;;4590620;19;20456;-79
2023/12/25 03:38:43;;;;;;;6.55;1.73;;;14.80;99.90;;;;;;4591582;19;20421;-79
2023/12/25 03:40:17;;;;;;;3.42;1.30;;;14.80;99.90;;;;;;4591508;19;20010;-79
2023/12/25 03:41:51;;;;;;;4.45;1.30;;;14.80;99.90;;;;;;4590213;19;19998;-79
2023/12/25 03:43:27;;;;;;;3.75;1.30;;;14.80;99.90;;;;;;4591672;19;20003;-79
2023/12/25 03:45:02;;;;;;;3.63;1.33;;;14.80;99.90;;;;;;4590947;19;20007;-79
2023/12/25 03:46:36;;;;;;;5.38;1.42;;;14.70;99.90;;;;;;4590078;19;20306;-79
2023/12/25 03:48:11;;;;;;;2.92;1.50;;;14.80;99.90;;;;;;4590950;19;20017;-78
2023/12/25 03:49:45;;;;;;;8.20;2.83;;;14.80;99.90;;;;;;4591443;19;20439;-79
2023/12/25 03:51:19;;;;;;;5.60;2.30;;;14.70;99.90;;;;;;4591374;19;20024;-79
2023/12/25 03:52:55;;;;;;;5.30;1.70;;;14.70;99.90;;;;;;4591519;19;20433;-79
2023/12/25 03:54:30;;;;;;;4.35;1.63;;;14.70;99.90;;;;;;4591675;19;20003;-79
2023/12/25 03:56:05;;;;;;;4.43;1.40;;;14.70;99.90;;;;;;4596049;19;20295;-79
2023/12/25 03:57:40;;;;;;;3.83;1.08;;;14.70;99.90;;;;;;4594883;19;20030;-78
2023/12/25 03:59:14;;;;;;;4.00;1.02;;;14.70;99.90;;;;;;4595557;19;20006;-79
2023/12/25 04:00:48;;;;;;;3.47;0.98;;;14.70;99.90;;;;;;4594550;19;19998;-79
2023/12/25 04:02:23;;;;;;;2.78;1.15;;;14.70;99.90;;;;;;4595806;19;20078;-79
2023/12/25 04:03:58;;;;;;;3.90;1.50;;;14.70;99.90;;;;;;4595811;19;20005;-79
2023/12/25 04:05:32;;;;;;;3.15;1.30;;;14.70;99.90;;;;;;4594139;19;20090;-79
2023/12/25 04:07:07;;;;;;;2.90;1.00;;;14.70;99.90;;;;;;4596197;19;20003;-78
2023/12/25 04:08:41;;;;;;;3.25;1.20;;;14.70;99.90;;;;;;4594671;19;20002;-79
2023/12/25 04:10:15;;;;;;;3.10;0.90;;;14.70;99.90;;;;;;4595680;19;20012;-79
2023/12/25 04:11:50;;;;;;;3.90;1.45;;;14.70;99.90;;;;;;4594375;19;20455;-79
2023/12/25 04:13:24;;;;;;;2.50;0.93;;;14.70;99.90;;;;;;4595489;19;20295;-79
2023/12/25 04:14:58;;;;;;;1.93;0.90;;;14.70;99.90;;;;;;4594477;19;20010;-79
2023/12/25 04:16:34;;;;;;;2.88;0.90;;;14.70;99.90;;;;;;4596259;19;20006;-79
2023/12/25 04:18:09;;;;;;;4.18;1.10;;;14.70;99.90;;;;;;4595839;19;20006;-79
2023/12/25 04:19:44;;;;;;;5.90;1.73;;;14.70;99.90;;;;;;4595535;19;20302;-79
2023/12/25 04:21:28;;;;;;;2.55;1.17;;;14.70;99.90;;;;;;4595487;19;20347;-79
2023/12/25 04:23:02;;;;;;;2.53;0.80;;;14.70;99.90;;;;;;4594425;19;20032;-79
2023/12/25 04:24:37;;;;;;;2.83;1.05;;;14.70;99.90;;;;;;4594565;19;20030;-79
2023/12/25 04:26:14;;;;;;;4.88;1.27;;;14.70;99.90;;;;;;4595669;19;20006;-79
2023/12/25 04:27:48;;;;;;;2.83;1.15;;;14.70;99.90;;;;;;4595380;19;20014;-79
2023/12/25 04:29:22;;;;;;;2.33;0.98;;;14.70;99.90;;;;;;4595261;19;20002;-79
2023/12/25 04:30:57;;;;;;;3.17;0.90;;;14.70;99.90;;;;;;4595374;19;19995;-79
2023/12/25 04:32:31;;;;;;;2.25;0.90;;;14.60;99.90;;;;;;4595383;19;20002;-79
2023/12/25 04:34:05;;;;;;;1.80;0.90;;;14.60;99.90;;;;;;4595394;19;19998;-79
2023/12/25 04:35:40;;;;;;;2.55;0.85;;;14.60;99.90;;;;;;4593525;19;20335;-79
2023/12/25 04:37:14;;;;;;;2.78;0.98;;;14.60;99.90;;;;;;4595368;19;20013;-79
2023/12/25 04:38:48;;;;;;;2.42;0.90;;;14.60;99.90;;;;;;4595310;19;19998;-79
2023/12/25 04:40:24;;;;;;;2.35;1.02;;;14.60;99.90;;;;;;4593487;19;20010;-79
2023/12/25 04:41:58;;;;;;;3.35;1.48;;;14.60;99.90;;;;;;4594555;19;19998;-79
2023/12/25 04:43:33;;;;;;;2.97;1.35;;;14.60;99.90;;;;;;4594966;19;20003;-79
2023/12/25 04:45:09;;;;;;;3.15;1.40;;;14.60;99.90;;;;;;4593966;19;20014;-79
2023/12/25 04:46:44;;;;;;;2.88;1.40;;;14.70;99.90;;;;;;4593928;19;20007;-79
2023/12/25 04:48:18;;;;;;;2.50;1.25;;;14.70;99.90;;;;;;4593955;19;20003;-79
2023/12/25 04:49:53;;;;;;;3.88;1.50;;;14.70;99.90;;;;;;4594931;19;20007;-78
2023/12/25 04:51:27;;;;;;;3.60;1.40;;;14.70;99.90;;;;;;4593442;19;20038;-78
2023/12/25 04:53:01;;;;;;;4.65;1.38;;;14.70;99.90;;;;;;4594463;19;20307;-78
2023/12/25 04:54:37;;;;;;;3.58;1.20;;;14.80;99.90;;;;;;4594283;19;20017;-78
2023/12/25 04:56:13;;;;;;;4.05;1.35;;;14.80;99.90;;;;;;4594982;19;20447;-78
2023/12/25 04:57:47;;;;;;;3.28;1.23;;;14.80;99.90;;;;;;4594617;19;20003;-78
2023/12/25 04:59:22;;;;;;;4.72;1.60;;;14.80;99.90;;;;;;4594678;19;20002;-78
2023/12/25 05:00:56;;;;;;;2.65;1.38;;;14.80;99.90;;;;;;4593238;19;20006;-79
2023/12/25 05:02:30;;;;;;;2.30;0.73;;;14.80;99.90;;;;;;4593146;19;20430;-79
2023/12/25 05:04:05;;;;;;;3.45;1.17;;;14.90;99.90;;;;;;4594981;19;20074;-78
2023/12/25 05:05:39;;;;;;;4.15;1.27;;;14.80;99.90;;;;;;4592910;19;20039;-78
2023/12/25 05:07:13;;;;;;;1.95;1.17;;;14.80;99.90;;;;;;4594478;19;20307;-78
2023/12/25 05:08:49;;;;;;;5.03;1.30;;;14.80;99.90;;;;;;4593612;19;20006;-78
2023/12/25 05:10:23;;;;;;;3.40;1.58;;;14.90;99.90;;;;;;4594341;19;20006;-78
2023/12/25 05:11:57;;;;;;;2.78;0.80;;;14.90;99.90;;;;;;4594431;19;20010;-78
2023/12/25 05:13:34;;;;;;;2.38;1.00;;;14.90;99.90;;;;;;4594685;19;20007;-77
2023/12/25 05:15:08;;;;;;;5.00;1.70;;;14.90;99.90;;;;;;4593392;19;20022;-78
2023/12/25 05:16:41;;;;;;;10.13;8.93;;;14.90;99.90;;;;;;4594294;19;20002;-78
2023/12/25 05:18:39;;;;;;;11.73;9.00;;;14.90;99.90;;;;;;4594660;19;20028;-78
2023/12/25 05:20:28;;;;;;;13.55;9.38;;;14.80;99.90;;;;;;4594482;19;20062;-78
2023/12/25 05:22:04;;;;;;;19.65;13.75;;;14.80;99.90;;;;;;4593820;19;20480;-78
2023/12/25 05:23:40;;;;;;;6.72;4.50;;;14.80;99.90;;;;;;4592826;19;20032;-79
2023/12/25 05:25:14;;;;;;;7.45;4.75;;;14.80;99.90;;;;;;4592797;19;20025;-78
2023/12/25 05:26:48;;;;;;;4.32;2.42;;;14.80;99.90;;;;;;4594370;19;20061;-78
2023/12/25 05:28:24;;;;;;;6.80;3.30;;;14.80;99.90;;;;;;4593374;19;20018;-78
2023/12/25 05:29:57;;;;;;;6.00;2.75;;;14.80;99.90;;;;;;4594002;19;20025;-78
2023/12/25 05:31:31;;;;;;;9.18;3.30;;;14.80;99.90;;;;;;4593910;19;20007;-78
2023/12/25 05:33:07;;;;;;;11.23;4.88;;;14.80;99.90;;;;;;4594253;19;20002;-78
2023/12/25 05:34:40;;;;;;;6.75;2.70;;;14.80;99.90;;;;;;4593416;19;20006;-78
2023/12/25 05:36:14;;;;;;;9.35;4.22;;;14.70;99.90;;;;;;4593791;19;20014;-78
2023/12/25 05:37:49;;;;;;;6.50;3.13;;;14.80;99.90;;;;;;4594232;19;20006;-78
2023/12/25 05:39:27;;;;;;;10.00;3.17;;;14.80;99.90;;;;;;4593765;19;20017;-78
2023/12/25 05:41:01;;;;;;;7.63;3.50;;;14.80;99.90;;;;;;4592445;19;20013;-78
2023/12/25 05:42:36;;;;;;;9.38;5.32;;;14.80;99.90;;;;;;4593651;19;20062;-78
2023/12/25 05:44:09;;;;;;;7.18;3.40;;;14.80;99.90;;;;;;4594034;19;19999;-78
2023/12/25 05:45:45;;;;;;;5.25;2.55;;;14.80;99.90;;;;;;4592294;19;20007;-78
2023/12/25 05:47:20;;;;;;;6.25;3.40;;;14.80;99.90;;;;;;4594001;19;20431;-78
2023/12/25 05:48:53;;;;;;;8.20;4.50;;;14.80;99.90;;;;;;4592518;19;20005;-78
2023/12/25 05:50:27;;;;;;;6.80;3.80;;;14.70;99.90;;;;;;4593592;19;20303;-78
2023/12/25 05:52:03;;;;;;;5.97;3.13;;;14.70;99.90;;;;;;4593785;19;20003;-78
2023/12/25 05:53:38;;;;;;;2.28;1.27;;;14.80;99.90;;;;;;4593541;19;20002;-78
2023/12/25 05:55:13;;;;;;;2.67;1.20;;;14.70;99.90;;;;;;4592703;19;20078;-78
2023/12/25 05:56:49;;;;;;;5.03;2.22;;;14.80;99.90;;;;;;4593459;19;20014;-78
2023/12/25 05:58:23;;;;;;;9.00;4.00;;;14.70;99.90;;;;;;4593378;19;20429;-78
2023/12/25 05:59:57;;;;;;;22.35;11.15;;;14.70;99.90;;;;;;4593689;19;20487;-78
2023/12/25 06:01:32;;;;;;;26.70;13.02;;;14.70;99.90;;;;;;4593601;19;20302;-78
2023/12/25 06:03:06;;;;;;;17.50;8.85;;;14.70;99.90;;;;;;4593264;19;20002;-78
2023/12/25 06:04:40;;;;;;;19.00;8.40;;;14.70;99.90;;;;;;4592792;19;20014;-78
2023/12/25 06:06:15;;;;;;;18.60;9.55;;;14.70;99.90;;;;;;4593454;19;20006;-78
2023/12/25 06:07:49;;;;;;;14.68;6.68;;;14.70;99.90;;;;;;4592970;19;20013;-78
2023/12/25 06:09:25;;;;;;;9.77;5.15;;;14.80;99.90;;;;;;4591658;19;20014;-78
2023/12/25 06:11:00;;;;;;;11.90;4.60;;;14.70;99.90;;;;;;4593177;19;20006;-78
2023/12/25 06:12:34;;;;;;;7.10;3.45;;;14.70;99.90;;;;;;4593416;19;20006;-78
2023/12/25 06:14:09;;;;;;;4.60;2.40;;;14.70;99.90;;;;;;4593388;19;20024;-78
2023/12/25 06:15:44;;;;;;;2.78;1.63;;;14.30;99.90;;;;;;4591670;19;20082;-78
2023/12/25 06:17:18;;;;;;;4.13;2.23;;;14.00;99.90;;;;;;4591646;19;20006;-78
2023/12/25 06:18:52;;;;;;;3.60;1.70;;;13.80;99.90;;;;;;4593342;19;19998;-78
2023/12/25 06:20:28;;;;;;;2.63;1.40;;;13.60;99.90;;;;;;4593320;19;20366;-78
2023/12/25 06:22:01;;;;;;;3.90;2.07;;;13.40;99.90;;;;;;4591606;19;20425;-77
2023/12/25 06:23:35;;;;;;;4.10;1.83;;;13.40;99.90;;;;;;4591761;19;20009;-78
2023/12/25 06:25:10;;;;;;;2.57;0.80;;;13.30;99.90;;;;;;4592103;19;20438;-77
2023/12/25 06:26:44;;;;;;;4.83;1.97;;;13.20;99.90;;;;;;4592783;19;20002;-77
2023/12/25 06:28:18;;;;;;;6.80;3.67;;;13.10;99.90;;;;;;4592524;19;20003;-77
2023/12/25 06:29:54;;;;;;;1.97;1.30;;;13.10;99.90;;;;;;4593214;19;20006;-77
2023/12/25 06:31:28;;;;;;;4.67;1.67;;;13.00;99.90;;;;;;4592800;19;20282;-77
2023/12/25 06:33:01;;;;;;;3.20;1.20;;;13.10;99.90;;;;;;4592682;19;20002;-77
2023/12/25 06:34:36;;;;;;;4.77;2.03;;;13.30;99.90;;;;;;4592624;19;20078;-77
2023/12/25 06:36:11;;;;;;;5.47;1.73;;;13.40;99.90;;;;;;4592632;19;20019;-78
2023/12/25 06:37:44;;;;;;;6.93;2.63;;;13.50;99.90;;;;;;4592915;19;20002;-78
2023/12/25 06:39:19;;;;;;;6.20;1.83;;;13.60;99.90;;;;;;4592603;19;20357;-78
2023/12/25 06:40:53;;;;;;;5.03;1.90;;;13.70;99.90;;;;;;4592489;19;20010;-78
2023/12/25 06:42:27;;;;;;;7.73;3.80;;;13.80;99.90;;;;;;4592552;19;20074;-78
2023/12/25 06:44:02;;;;;;;6.78;3.28;;;13.90;99.90;;;;;;4592515;19;19999;-77
2023/12/25 06:45:36;;;;;;;5.63;2.03;;;14.00;99.90;;;;;;4590094;19;20008;-78
2023/12/25 06:47:12;;;;;;;5.47;2.33;;;14.10;99.90;;;;;;4592317;19;19998;-78
2023/12/25 06:48:47;;;;;;;7.13;3.55;;;14.10;99.90;;;;;;4591641;19;20006;-78
2023/12/25 06:50:22;;;;;;;8.27;3.60;;;14.20;99.90;;;;;;4592639;19;20507;-78
2023/12/25 06:51:56;;;;;;;6.15;2.30;;;14.20;99.90;;;;;;4592703;19;20337;-78
2023/12/25 06:53:31;;;;;;;9.55;3.38;;;14.30;99.90;;;;;;4592661;19;20373;-78
2023/12/25 06:55:06;;;;;;;14.85;6.80;;;14.30;99.90;;;;;;4590353;19;20002;-78
2023/12/25 06:56:40;;;;;;;14.50;8.07;;;14.30;99.90;;;;;;4592031;19;19995;-78
2023/12/25 06:58:15;;;;;;;15.10;7.80;;;14.40;99.90;;;;;;4592332;19;20006;-78
2023/12/25 06:59:49;;;;;;;16.80;8.05;;;14.40;99.90;;;;;;4592280;19;20066;-78
2023/12/25 07:01:24;;;;;;;11.23;5.15;;;14.40;99.90;;;;;;4592430;19;20066;-78
2023/12/25 07:03:00;;;;;;;12.02;5.82;;;14.40;99.90;;;;;;4592600;19;20003;-78
2023/12/25 07:04:34;;;;;;;13.82;6.57;;;14.50;99.90;;;;;;4591715;19;20007;-78
2023/12/25 07:06:10;;;;;;;13.20;5.63;;;14.50;99.90;;;;;;4592127;19;20013;-78
2023/12/25 07:07:46;;;;;;;13.88;6.50;;;14.50;99.90;;;;;;4592321;19;20028;-78
2023/12/25 07:09:20;;;;;;;13.63;5.88;;;14.50;99.90;;;;;;4592191;19;20002;-79
2023/12/25 07:10:54;;;;;;;13.38;5.88;;;14.50;99.90;;;;;;4592033;19;19998;-78
2023/12/25 07:12:30;;;;;;;14.93;7.10;;;14.50;99.90;;;;;;4590772;19;20017;-79
2023/12/25 07:14:05;;;;;;;14.32;6.38;;;14.50;99.90;;;;;;4591647;19;20002;-79
2023/12/25 07:15:39;;;;;;;13.10;6.97;;;14.50;99.90;;;;;;4590862;19;20019;-78
2023/12/25 07:17:15;;;;;;;10.48;4.00;;;14.50;99.90;;;;;;4591974;19;20024;-78
2023/12/25 07:18:52;;;;;;;14.35;6.70;;;14.50;99.90;;;;;;4592237;19;20361;-78
2023/12/25 07:20:27;;;;;;;10.68;4.97;;;14.50;99.90;;;;;;4590723;19;20041;-78
2023/12/25 07:22:02;;;;;;;10.60;5.40;;;14.50;99.90;;;;;;4591626;19;19995;-78
2023/12/25 07:23:35;;;;;;;12.23;6.20;;;14.50;99.90;;;;;;4591855;19;20012;-78
2023/12/25 07:25:10;;;;;;;13.43;6.00;;;14.50;99.90;;;;;;4589706;19;20023;-77
2023/12/25 07:26:48;;;;;;;10.57;4.50;;;14.50;99.90;;;;;;4591191;19;20021;-77
2023/12/25 07:28:23;;;;;;;11.15;4.82;;;14.50;99.90;;;;;;4591290;19;20007;-77
2023/12/25 07:29:57;;;;;;;7.95;3.67;;;14.50;99.90;;;;;;4593903;19;20008;-77
2023/12/25 07:31:31;;;;;;;10.15;4.43;;;14.60;99.90;;;;;;4596390;19;20313;-77
2023/12/25 07:33:06;;;;;;;9.43;3.75;;;14.60;99.90;;;;;;4596502;19;20010;-77
2023/12/25 07:34:40;;;;;;;8.75;4.13;;;14.70;99.90;;;;;;4595776;19;20032;-77
2023/12/25 07:36:14;;;;;;;9.80;3.80;;;14.70;99.90;;;;;;4596377;19;19999;-77
2023/12/25 07:37:49;;;;;;;6.63;3.83;;;14.80;99.90;;;;;;4596890;19;20011;-77
2023/12/25 07:39:23;;;;;;;9.77;4.70;;;14.60;99.90;;;;;;4596246;19;20027;-77
2023/12/25 07:40:58;;;;;;;7.68;4.28;;;14.20;99.90;;;;;;4596248;19;20016;-78
2023/12/25 07:42:34;;;;;;;5.85;3.17;;;14.00;99.90;;;;;;4596287;19;20006;-78
2023/12/25 07:44:07;;;;;;;7.97;4.50;;;13.90;99.90;;;;;;4596423;19;20010;-78
2023/12/25 07:45:41;;;;;;;7.25;2.75;;;13.80;99.90;;;;;;4594325;19;20002;-78
2023/12/25 07:47:16;;;;;;;5.82;2.97;;;13.70;99.90;;;;;;4596147;19;20471;-78
2023/12/25 07:48:50;;;;;;;6.73;3.23;;;13.60;99.90;;;;;;4595052;19;20003;-78
2023/12/25 07:50:25;;;;;;;7.97;3.90;;;13.50;99.90;;;;;;4596368;19;20002;-78
2023/12/25 07:52:01;;;;;;;8.37;4.00;;;13.50;99.90;;;;;;4595980;19;20027;-78
2023/12/25 07:53:35;;;;;;;7.23;3.67;;;13.50;99.90;;;;;;4595084;19;19998;-77
2023/12/25 07:55:09;;;;;;;7.57;3.77;;;13.40;99.90;;;;;;4594494;19;20032;-78
2023/12/25 07:56:44;;;;;;;6.77;3.90;;;13.40;99.90;;;;;;4596675;19;20485;-77
2023/12/25 07:58:18;;;;;;;8.67;4.63;;;13.30;99.90;;;;;;4595897;19;20003;-78
2023/12/25 07:59:52;;;;;;;5.93;3.10;;;13.30;99.90;;;;;;4596076;19;20367;-77
2023/12/25 08:01:27;;;;;;;5.87;3.07;;;13.20;99.90;;;;;;4595857;19;20007;-78
2023/12/25 08:03:01;;;;;;;8.47;4.07;;;13.20;99.90;;;;;;4596071;19;20016;-80
2023/12/25 08:04:35;;;;;;;5.07;3.20;;;13.10;99.90;;;;;;4595130;19;20021;-83
2023/12/25 08:06:11;;;;;;;6.60;3.43;;;13.10;99.90;;;;;;4596280;19;20301;-88
2023/12/25 08:07:45;;;;;;;6.27;3.20;;;13.10;99.90;;;;;;4594262;19;20082;-84
2023/12/25 08:09:19;;;;;;;9.10;3.90;;;13.00;99.90;;;;;;4595617;19;20421;-84
2023/12/25 08:10:55;;;;;;;7.90;3.90;;;13.00;99.90;;;;;;4595972;19;20286;-87
2023/12/25 08:12:29;;;;;;;7.67;4.70;;;13.00;99.90;;;;;;4594282;19;19995;-81
2023/12/25 08:14:04;;;;;;;9.47;5.70;;;12.90;99.90;;;;;;4595220;19;19999;-81
2023/12/25 08:15:39;;;;;;;7.67;4.80;;;12.90;99.90;;;;;;4594049;19;20433;-82
2023/12/25 08:17:13;;;;;;;9.70;6.63;;;12.90;99.90;;;;;;4595726;19;20018;-81
2023/12/25 08:18:47;;;;;;;7.30;5.40;;;12.90;99.90;;;;;;4595372;19;20013;-81
2023/12/25 08:20:22;;;;;;;6.33;3.57;;;12.90;99.90;;;;;;4595383;19;20006;-81
2023/12/25 08:21:57;;;;;;;6.17;3.00;;;12.80;99.90;;;;;;4594280;19;20062;-81
2023/12/25 08:23:31;;;;;;;5.60;2.90;;;12.90;99.90;;;;;;4594018;19;20093;-80
2023/12/25 08:25:07;;;;;;;6.57;3.70;;;12.90;99.90;;;;;;4594080;19;20010;-82
2023/12/25 08:26:40;;;;;;;5.83;2.93;;;12.80;99.90;;;;;;4593892;19;20066;-84